M/T Pazar — TCMC — position and weather

sailwx.info

Track history (hours):
 
Tides and Currents Weather Stations Pressure Air Temp Water Temp Dewpoint Dewpoint Depression Visibility Wind Speed Wind Dir Waves Ship Positions

M/T Pazar

Last reported at 2016-Aug-18 11:31 UTC. Time now 2016-Aug-26 23:27 UTC.
Position N 36°34' W 002°57'.
Warning: this ship's position is 8 days out of date.

Length 85 m; draft 5.4 m.

Type: Ship (hazmat cat C). MMSI: 271000251.

Date/timePositionNaut miles runAvg speedWind from/ knotsBaromVisibWave heightAir tempDewpointWater temp
2016-Aug-18 11:31N 36°34' W 002°57'9 9.3
2016-Aug-18 10:33N 36°32' W 002°46'23 9.6
2016-Aug-18 08:12N 36°26' W 002°19'6 9.8
2016-Aug-18 07:34N 36°26' W 002°11'15 9.8
2016-Aug-18 06:04N 36°28' W 001°53'5 9.3
2016-Aug-18 05:30N 36°29' W 001°47'38 9.5
2016-Aug-18 01:31N 36°35' W 001°00'11 9.4
2016-Aug-18 00:19N 36°37' W 000°47'9 9.4
2016-Aug-17 23:24N 36°38' W 000°36'47 9.6
2016-Aug-17 18:32N 36°44' E 000°22'9 9.4
2016-Aug-17 17:33N 36°45' E 000°34'9 9.4
2016-Aug-17 16:32N 36°47' E 000°45'9 9.6
2016-Aug-17 15:33N 36°48' E 000°57'1010.2
2016-Aug-17 14:33N 36°49' E 001°10'1110.3
2016-Aug-17 13:28N 36°50' E 001°24'910.3
2016-Aug-17 12:33N 36°52' E 001°35'1110.4
2016-Aug-17 11:28N 36°53' E 001°49'1310.7
2016-Aug-17 10:15N 36°54' E 002°05'710.5
2016-Aug-17 09:33N 36°55' E 002°15'3110.4
2016-Aug-17 06:33N 36°59' E 002°53'29110.3
2016-Aug-16 02:21N 37°21' E 008°58'  
2016-Aug-11 22:27N 36°04' E 011°37'8 8.7
2016-Aug-11 21:33N 35°56' E 011°40'9 8.5
2016-Aug-11 20:33N 35°48' E 011°43'8 7.8
2016-Aug-11 19:33N 35°41' E 011°45'10 8.3
2016-Aug-11 18:21N 35°31' E 011°49'7 8.7
2016-Aug-11 17:33N 35°24' E 011°51'19 9.3
2016-Aug-11 15:32N 35°06' E 011°57'9 9.5
2016-Aug-11 14:33N 34°57' E 012°00'16 8.1
2016-Aug-11 12:32N 34°42' E 011°52'  
Track history (hours):
 
Tides and Currents Weather Stations Pressure Air Temp Water Temp Dewpoint Dewpoint Depression Visibility Wind Speed Wind Dir Waves Ship Positions

M/T Pazar

Last reported at 2016-Aug-18 11:31 UTC. Time now 2016-Aug-26 23:27 UTC.
Position N 36°34' W 002°57'.
Warning: this ship's position is 8 days out of date.

Length 85 m; draft 5.4 m.

Type: Ship (hazmat cat C). MMSI: 271000251.

Date/timePositionNaut miles runAvg speedWind from/ knotsBaromVisibWave heightAir tempDewpointWater temp
2016-Aug-18 11:31N 36°34' W 002°57'9 9.3
2016-Aug-18 10:33N 36°32' W 002°46'23 9.6
2016-Aug-18 08:12N 36°26' W 002°19'6 9.8
2016-Aug-18 07:34N 36°26' W 002°11'15 9.8
2016-Aug-18 06:04N 36°28' W 001°53'5 9.3
2016-Aug-18 05:30N 36°29' W 001°47'38 9.5
2016-Aug-18 01:31N 36°35' W 001°00'11 9.4
2016-Aug-18 00:19N 36°37' W 000°47'9 9.4
2016-Aug-17 23:24N 36°38' W 000°36'47 9.6
2016-Aug-17 18:32N 36°44' E 000°22'9 9.4
2016-Aug-17 17:33N 36°45' E 000°34'9 9.4
2016-Aug-17 16:32N 36°47' E 000°45'9 9.6
2016-Aug-17 15:33N 36°48' E 000°57'1010.2
2016-Aug-17 14:33N 36°49' E 001°10'1110.3
2016-Aug-17 13:28N 36°50' E 001°24'910.3
2016-Aug-17 12:33N 36°52' E 001°35'1110.4
2016-Aug-17 11:28N 36°53' E 001°49'1310.7
2016-Aug-17 10:15N 36°54' E 002°05'710.5
2016-Aug-17 09:33N 36°55' E 002°15'3110.4
2016-Aug-17 06:33N 36°59' E 002°53'29110.3
2016-Aug-16 02:21N 37°21' E 008°58'  
2016-Aug-11 22:27N 36°04' E 011°37'8 8.7
2016-Aug-11 21:33N 35°56' E 011°40'9 8.5
2016-Aug-11 20:33N 35°48' E 011°43'8 7.8
2016-Aug-11 19:33N 35°41' E 011°45'10 8.3
2016-Aug-11 18:21N 35°31' E 011°49'7 8.7
2016-Aug-11 17:33N 35°24' E 011°51'19 9.3
2016-Aug-11 15:32N 35°06' E 011°57'9 9.5
2016-Aug-11 14:33N 34°57' E 012°00'16 8.1
2016-Aug-11 12:32N 34°42' E 011°52'  

Dump ship's entire track history